Time;durP1;ratioP1;P1;durP2;ratioP2;P2;SDS_P1;SDS_P2;PMS_P1;PMS_P2;Temp;Humidity;BMP_temperature;BMP_pressure;BME280_temperature;BME280_humidity;BME280_pressure;Samples;Min_cycle;Max_cycle;Signal;HPM_P1;HPM_P2
2022/01/07 00:01:26;;;;;;;0.00;0.00;;;5.50;99.90;;;;;;6212531;23;20034;-71
2022/01/07 00:03:51;;;;;;;0.00;0.00;;;5.50;99.90;;;;;;6213354;23;20005;-69
2022/01/07 00:06:18;;;;;;;0.00;0.00;;;5.50;99.90;;;;;;6213633;23;20000;-70
2022/01/07 00:08:44;;;;;;;0.00;0.00;;;5.50;99.90;;;;;;6213132;23;19996;-70
2022/01/07 00:11:10;;;;;;;0.00;0.00;;;5.40;99.90;;;;;;6212445;23;20055;-70
2022/01/07 00:13:36;;;;;;;;;;;5.40;99.90;;;;;;6213408;23;20434;-70
2022/01/07 00:16:02;;;;;;;0.00;0.00;;;5.50;99.90;;;;;;6213185;23;19899;-68
2022/01/07 00:18:28;;;;;;;0.00;0.00;;;5.40;99.90;;;;;;6214369;23;20558;-70
2022/01/07 00:20:54;;;;;;;0.00;0.00;;;5.40;99.90;;;;;;6213063;23;20012;-70
2022/01/07 00:23:20;;;;;;;;;;;5.30;99.90;;;;;;6214633;23;20009;-69
2022/01/07 00:25:46;;;;;;;0.00;0.00;;;5.20;99.90;;;;;;6212277;23;20374;-71
2022/01/07 00:28:13;;;;;;;0.00;0.00;;;5.30;99.90;;;;;;6213925;23;19996;-69
2022/01/07 00:30:38;;;;;;;;;;;5.30;99.90;;;;;;6214244;23;20094;-70
2022/01/07 00:33:05;;;;;;;0.00;0.00;;;5.40;99.90;;;;;;6212985;23;19900;-70
2022/01/07 00:35:31;;;;;;;0.00;0.00;;;5.40;99.90;;;;;;6212103;23;20455;-68
2022/01/07 00:37:57;;;;;;;0.00;0.00;;;5.40;99.90;;;;;;6214091;23;19997;-69
2022/01/07 00:40:24;;;;;;;0.00;0.00;;;5.50;99.90;;;;;;6212037;23;20004;-69
2022/01/07 00:42:50;;;;;;;0.00;0.00;;;5.50;99.90;;;;;;6212867;23;20364;-69
2022/01/07 00:45:18;;;;;;;0.00;0.00;;;5.50;99.90;;;;;;6214198;23;20092;-71
2022/01/07 00:47:44;;;;;;;0.00;0.00;;;5.40;99.90;;;;;;6213367;23;20001;-69
2022/01/07 00:50:10;;;;;;;;;;;5.30;99.90;;;;;;6214469;23;20000;-69
2022/01/07 00:52:36;;;;;;;0.00;0.00;;;5.30;99.90;;;;;;6213503;23;19903;-68
2022/01/07 00:55:03;;;;;;;0.00;0.00;;;5.20;99.90;;;;;;6213586;23;20003;-70
2022/01/07 00:57:29;;;;;;;0.00;0.00;;;5.20;99.90;;;;;;6214615;23;20064;-69
2022/01/07 00:59:54;;;;;;;0.00;0.00;;;5.20;99.90;;;;;;6213046;23;20079;-72
2022/01/07 01:02:20;;;;;;;0.00;0.00;;;5.20;99.90;;;;;;6213867;23;20015;-70
2022/01/07 01:04:46;;;;;;;0.00;0.00;;;5.20;99.90;;;;;;6213583;23;20432;-69
2022/01/07 01:07:13;;;;;;;0.00;0.00;;;5.30;99.90;;;;;;6213186;23;20001;-69
2022/01/07 01:09:40;;;;;;;0.00;0.00;;;5.30;99.90;;;;;;6213877;23;20060;-73
2022/01/07 01:12:05;;;;;;;;;;;5.40;99.90;;;;;;6214474;23;20325;-71
2022/01/07 01:14:31;;;;;;;0.00;0.00;;;5.40;99.90;;;;;;6212981;23;19954;-70
2022/01/07 01:16:59;;;;;;;0.00;0.00;;;5.20;99.90;;;;;;6213571;23;19996;-70
2022/01/07 01:19:25;;;;;;;0.00;0.00;;;5.00;99.90;;;;;;6213319;23;20012;-70
2022/01/07 01:21:51;;;;;;;0.00;0.00;;;4.70;99.90;;;;;;6213427;23;20005;-70
2022/01/07 01:24:17;;;;;;;;;;;4.50;99.90;;;;;;6213897;23;20063;-71
2022/01/07 01:26:43;;;;;;;0.00;0.00;;;4.50;99.90;;;;;;6212536;23;19982;-71
2022/01/07 01:29:08;;;;;;;;;;;4.40;99.90;;;;;;6213966;23;20003;-70
2022/01/07 01:31:36;;;;;;;0.00;0.00;;;4.40;99.90;;;;;;6212924;23;19900;-72
2022/01/07 01:34:03;;;;;;;0.00;0.00;;;4.30;99.90;;;;;;6211895;23;20044;-71
2022/01/07 01:36:29;;;;;;;0.00;0.00;;;4.30;99.90;;;;;;6212798;23;20448;-70
2022/01/07 01:38:56;;;;;;;0.00;0.00;;;4.40;99.90;;;;;;6215109;23;20341;-71
2022/01/07 01:41:21;;;;;;;;;;;4.30;99.90;;;;;;6213915;23;20001;-70
2022/01/07 01:43:49;;;;;;;0.00;0.00;;;4.40;99.90;;;;;;6214693;23;19907;-74
2022/01/07 01:46:16;;;;;;;0.00;0.00;;;4.20;99.90;;;;;;6213023;23;20421;-74
2022/01/07 01:48:42;;;;;;;0.00;0.00;;;4.30;99.90;;;;;;6213344;23;20000;-71
2022/01/07 01:51:08;;;;;;;0.00;0.00;;;4.40;99.90;;;;;;6212853;23;20055;-71
2022/01/07 01:53:34;;;;;;;0.00;0.00;;;4.40;99.90;;;;;;6211086;23;20004;-70
2022/01/07 01:56:00;;;;;;;0.00;0.00;;;4.40;99.90;;;;;;6212639;23;20028;-70
2022/01/07 01:58:27;;;;;;;0.00;0.00;;;4.30;99.90;;;;;;6212657;23;19997;-70
2022/01/07 02:00:53;;;;;;;0.00;0.00;;;4.30;99.90;;;;;;6211784;23;20009;-70
2022/01/07 02:03:18;;;;;;;0.00;0.00;;;4.30;99.90;;;;;;6212562;23;20163;-71
2022/01/07 02:05:45;;;;;;;0.00;0.00;;;4.40;99.90;;;;;;6212018;23;20001;-69
2022/01/07 02:08:12;;;;;;;0.00;0.00;;;4.50;99.90;;;;;;6212494;23;20000;-70
2022/01/07 02:10:37;;;;;;;0.00;0.00;;;4.40;99.90;;;;;;6212539;23;20008;-71
2022/01/07 02:13:03;;;;;;;0.00;0.00;;;4.50;99.90;;;;;;6212473;23;20380;-71
2022/01/07 02:15:29;;;;;;;0.00;0.00;;;4.50;99.90;;;;;;6212496;23;20040;-71
2022/01/07 02:17:57;;;;;;;0.00;0.00;;;4.70;99.90;;;;;;6212136;23;20009;-71
2022/01/07 02:20:25;;;;;;;0.00;0.00;;;4.70;99.90;;;;;;6212520;23;20474;-70
2022/01/07 02:22:53;;;;;;;0.00;0.00;;;4.70;99.90;;;;;;6212813;23;20079;-70
2022/01/07 02:25:20;;;;;;;0.00;0.00;;;4.80;99.90;;;;;;6212789;23;19996;-71
2022/01/07 02:27:47;;;;;;;0.00;0.00;;;4.80;99.90;;;;;;6211980;23;20032;-70
2022/01/07 02:30:19;;;;;;;0.00;0.00;;;4.80;99.90;;;;;;6213236;23;20036;-71
2022/01/07 02:32:46;;;;;;;0.00;0.00;;;4.80;99.90;;;;;;6213333;23;20004;-69
2022/01/07 02:35:13;;;;;;;0.00;0.00;;;4.90;99.90;;;;;;6211411;23;20056;-71
2022/01/07 02:37:39;;;;;;;0.00;0.00;;;4.80;99.90;;;;;;6212950;23;20074;-71
2022/01/07 02:40:05;;;;;;;;;;;4.80;99.90;;;;;;6212154;23;20000;-71
2022/01/07 02:42:31;;;;;;;0.00;0.00;;;4.90;99.90;;;;;;6211255;23;19908;-71
2022/01/07 02:44:57;;;;;;;0.00;0.00;;;4.90;99.90;;;;;;6212360;23;20060;-70
2022/01/07 02:47:26;;;;;;;0.00;0.00;;;4.90;99.90;;;;;;6209454;23;20376;-70
2022/01/07 02:49:51;;;;;;;0.00;0.00;;;4.90;99.90;;;;;;6212168;23;20373;-70
2022/01/07 02:52:17;;;;;;;0.00;0.00;;;4.90;99.90;;;;;;6211492;23;20000;-70
2022/01/07 02:54:43;;;;;;;0.00;0.00;;;4.90;99.90;;;;;;6211951;23;20057;-71
2022/01/07 02:57:08;;;;;;;0.00;0.00;;;4.90;99.90;;;;;;6212144;23;20068;-69
2022/01/07 02:59:34;;;;;;;0.00;0.00;;;5.00;99.90;;;;;;6211952;23;20028;-69
2022/01/07 03:02:00;;;;;;;0.00;0.00;;;4.90;99.90;;;;;;6211642;23;20062;-70
2022/01/07 03:04:27;;;;;;;0.00;0.00;;;4.80;99.90;;;;;;6212215;23;20009;-68
2022/01/07 03:06:54;;;;;;;0.00;0.00;;;4.80;99.90;;;;;;6211577;23;20091;-70
2022/01/07 03:09:19;;;;;;;0.00;0.00;;;4.80;99.90;;;;;;6211804;23;20015;-69
2022/01/07 03:11:45;;;;;;;0.00;0.00;;;4.80;99.90;;;;;;6211977;23;20036;-70
2022/01/07 03:14:11;;;;;;;0.00;0.00;;;4.80;99.90;;;;;;6211992;23;19993;-69
2022/01/07 03:16:39;;;;;;;0.00;0.00;;;4.80;99.90;;;;;;6212621;23;20066;-69
2022/01/07 03:19:06;;;;;;;0.00;0.00;;;4.90;99.90;;;;;;6212224;23;20484;-68
2022/01/07 03:21:31;;;;;;;0.00;0.00;;;4.80;99.90;;;;;;6213295;23;20459;-71
2022/01/07 03:23:57;;;;;;;0.00;0.00;;;4.70;99.90;;;;;;6213242;23;19997;-69
2022/01/07 03:26:23;;;;;;;0.00;0.00;;;4.70;99.90;;;;;;6211595;23;20008;-70
2022/01/07 03:28:49;;;;;;;0.00;0.00;;;4.70;99.90;;;;;;6212600;23;20012;-70
2022/01/07 03:31:15;;;;;;;0.00;0.00;;;4.70;99.90;;;;;;6213004;23;20072;-70
2022/01/07 03:33:41;;;;;;;;;;;4.80;99.90;;;;;;6211751;23;20445;-71
2022/01/07 03:36:06;;;;;;;0.00;0.00;;;4.70;99.90;;;;;;6213442;23;19923;-69
2022/01/07 03:38:32;;;;;;;0.00;0.00;;;4.60;99.90;;;;;;6213405;23;19997;-70
2022/01/07 03:40:58;;;;;;;0.00;0.00;;;4.50;99.90;;;;;;6212732;23;20000;-71
2022/01/07 03:43:24;;;;;;;;;;;4.60;99.90;;;;;;6212888;23;20009;-70
2022/01/07 03:45:50;;;;;;;0.00;0.00;;;4.60;99.90;;;;;;6212722;23;19985;-69
2022/01/07 03:48:16;;;;;;;0.00;0.00;;;4.60;99.90;;;;;;6213312;23;19996;-71
2022/01/07 03:50:41;;;;;;;0.00;0.00;;;4.60;99.90;;;;;;6212919;23;20032;-70
2022/01/07 03:53:08;;;;;;;0.00;0.00;;;4.60;99.90;;;;;;6211747;23;20000;-69
2022/01/07 03:55:33;;;;;;;;;;;4.50;99.90;;;;;;6212225;23;19997;-70
2022/01/07 03:57:59;;;;;;;0.00;0.00;;;4.50;99.90;;;;;;6211679;23;19980;-69
2022/01/07 04:00:33;;;;;;;0.00;0.00;;;4.50;99.90;;;;;;6210032;23;20012;-69
2022/01/07 04:03:04;;;;;;;0.00;0.00;;;4.60;99.90;;;;;;6213346;23;20450;-70
2022/01/07 04:05:29;;;;;;;0.00;0.00;;;4.60;99.90;;;;;;6213367;23;20031;-70
2022/01/07 04:07:55;;;;;;;0.00;0.00;;;4.60;99.90;;;;;;6212152;23;20001;-69
2022/01/07 04:10:21;;;;;;;0.00;0.00;;;4.70;99.90;;;;;;6212132;23;20008;-70
2022/01/07 04:12:47;;;;;;;0.00;0.00;;;4.80;99.90;;;;;;6211930;23;20007;-70
2022/01/07 04:15:12;;;;;;;0.00;0.00;;;4.80;99.90;;;;;;6212231;23;20004;-71
2022/01/07 04:17:41;;;;;;;0.00;0.00;;;4.70;99.90;;;;;;6213157;23;19996;-69
2022/01/07 04:20:10;;;;;;;0.00;0.00;;;4.70;99.90;;;;;;6211937;23;20429;-69
2022/01/07 04:22:36;;;;;;;0.00;0.00;;;4.80;99.90;;;;;;6213504;23;20011;-69
2022/01/07 04:25:04;;;;;;;0.00;0.00;;;4.80;99.90;;;;;;6213747;23;20001;-70
2022/01/07 04:27:30;;;;;;;0.00;0.00;;;4.70;99.90;;;;;;6211398;23;19997;-70
2022/01/07 04:29:56;;;;;;;;;;;4.60;99.90;;;;;;6212933;23;19997;-71
2022/01/07 04:32:22;;;;;;;0.00;0.00;;;4.60;99.90;;;;;;6210437;23;20366;-71
2022/01/07 04:34:48;;;;;;;0.00;0.00;;;4.60;99.90;;;;;;6210621;23;20341;-69
2022/01/07 04:37:14;;;;;;;0.00;0.00;;;4.70;99.90;;;;;;6211221;23;20028;-70
2022/01/07 04:39:40;;;;;;;0.00;0.00;;;4.60;99.90;;;;;;6211635;23;20502;-70
2022/01/07 04:42:06;;;;;;;;;;;4.50;99.90;;;;;;6213591;23;20013;-71
2022/01/07 04:44:32;;;;;;;0.00;0.00;;;4.60;99.90;;;;;;6211990;23;20347;-71
2022/01/07 04:46:57;;;;;;;0.00;0.00;;;4.60;99.90;;;;;;6213064;23;20337;-70
2022/01/07 04:49:23;;;;;;;0.00;0.00;;;4.60;99.90;;;;;;6213949;23;20023;-70
2022/01/07 04:51:49;;;;;;;0.00;0.00;;;4.60;99.90;;;;;;6213918;23;20080;-70
2022/01/07 04:54:14;;;;;;;0.00;0.00;;;4.60;99.90;;;;;;6211085;23;20000;-70
2022/01/07 04:56:40;;;;;;;0.00;0.00;;;4.50;99.90;;;;;;6213329;23;20028;-70
2022/01/07 04:59:06;;;;;;;0.00;0.00;;;4.40;99.90;;;;;;6212647;23;20000;-71
2022/01/07 05:01:32;;;;;;;0.00;0.00;;;4.20;99.90;;;;;;6210691;23;20185;-70
2022/01/07 05:03:57;;;;;;;0.00;0.00;;;4.00;99.90;;;;;;6211941;23;20001;-71
2022/01/07 05:09:07;;;;;;;0.00;0.00;;;4.00;99.90;;;;;;6211948;23;20035;-69
2022/01/07 05:11:33;;;;;;;0.00;0.00;;;4.00;99.90;;;;;;6213339;23;20008;-70
2022/01/07 05:13:58;;;;;;;0.00;0.00;;;4.00;99.90;;;;;;6211964;23;20112;-70
2022/01/07 05:16:26;;;;;;;0.00;0.00;;;4.10;99.90;;;;;;6213063;23;20003;-70
2022/01/07 05:18:52;;;;;;;0.00;0.00;;;4.10;99.90;;;;;;6213889;23;20046;-69
2022/01/07 05:21:18;;;;;;;0.00;0.00;;;4.10;99.90;;;;;;6212196;23;20447;-70
2022/01/07 05:23:43;;;;;;;0.00;0.00;;;4.30;99.90;;;;;;6212513;23;19996;-69
2022/01/07 05:26:09;;;;;;;0.00;0.00;;;4.30;99.90;;;;;;6210555;23;20008;-72
2022/01/07 05:28:35;;;;;;;0.00;0.00;;;4.40;99.90;;;;;;6212564;23;20007;-73
2022/01/07 05:31:03;;;;;;;0.00;0.00;;;4.50;99.90;;;;;;6211328;23;20372;-71
2022/01/07 05:33:28;;;;;;;0.00;0.00;;;4.60;99.90;;;;;;6209364;23;20000;-72
2022/01/07 05:35:54;;;;;;;0.00;0.00;;;4.60;99.90;;;;;;6211241;23;20019;-71
2022/01/07 05:38:20;;;;;;;0.00;0.00;;;4.70;99.90;;;;;;6211593;23;20054;-70
2022/01/07 05:40:46;;;;;;;0.00;0.00;;;4.70;99.90;;;;;;6209690;23;20035;-72
2022/01/07 05:43:11;;;;;;;0.00;0.00;;;4.70;99.90;;;;;;6211692;23;20016;-71
2022/01/07 05:45:37;;;;;;;0.00;0.00;;;4.90;99.90;;;;;;6211932;23;20287;-71
2022/01/07 05:48:03;;;;;;;0.00;0.00;;;4.90;99.90;;;;;;6210270;23;20302;-72
2022/01/07 05:50:29;;;;;;;0.00;0.00;;;4.80;99.90;;;;;;6211332;23;20080;-71
2022/01/07 05:52:55;;;;;;;0.00;0.00;;;4.80;99.90;;;;;;6210457;23;20036;-71
2022/01/07 05:55:21;;;;;;;0.00;0.00;;;4.80;99.90;;;;;;6211554;23;20009;-71
2022/01/07 05:57:46;;;;;;;0.00;0.00;;;4.80;99.90;;;;;;6211640;23;20000;-72
2022/01/07 06:00:13;;;;;;;0.00;0.00;;;4.80;99.90;;;;;;6209840;23;20012;-69
2022/01/07 06:02:41;;;;;;;0.00;0.00;;;4.80;99.90;;;;;;6212050;23;20051;-71
2022/01/07 06:05:08;;;;;;;0.00;0.00;;;4.70;99.90;;;;;;6211571;23;20004;-70
2022/01/07 06:07:33;;;;;;;0.00;0.00;;;4.60;99.90;;;;;;6210573;23;20432;-72
2022/01/07 06:10:00;;;;;;;0.00;0.00;;;4.50;99.90;;;;;;6211357;23;20001;-71
2022/01/07 06:12:25;;;;;;;0.00;0.00;;;4.50;99.90;;;;;;6210185;23;20005;-70
2022/01/07 06:14:51;;;;;;;0.00;0.00;;;4.50;99.90;;;;;;6209715;23;20015;-72
2022/01/07 06:17:18;;;;;;;0.00;0.00;;;4.60;99.90;;;;;;6211622;23;19996;-71
2022/01/07 06:19:44;;;;;;;0.00;0.00;;;4.70;99.90;;;;;;6209543;23;19997;-71
2022/01/07 06:22:10;;;;;;;0.00;0.00;;;4.60;99.90;;;;;;6211865;23;20067;-71
2022/01/07 06:24:36;;;;;;;0.00;0.00;;;4.80;99.90;;;;;;6210044;23;20008;-72
2022/01/07 06:27:03;;;;;;;0.00;0.00;;;4.70;99.90;;;;;;6210041;23;20000;-71
2022/01/07 06:29:28;;;;;;;0.00;0.00;;;4.70;99.90;;;;;;6211174;23;20059;-72
2022/01/07 06:31:54;;;;;;;0.00;0.00;;;4.60;99.90;;;;;;6210465;23;20008;-70
2022/01/07 06:34:20;;;;;;;0.00;0.00;;;4.70;99.90;;;;;;6209542;23;20020;-70
2022/01/07 06:36:49;;;;;;;0.00;0.00;;;4.80;99.90;;;;;;6210506;23;20391;-70
2022/01/07 06:39:18;;;;;;;0.00;0.00;;;4.90;99.90;;;;;;6209901;23;20001;-71
2022/01/07 06:41:46;;;;;;;0.00;0.00;;;4.90;99.90;;;;;;6211063;23;20004;-71
2022/01/07 06:44:13;;;;;;;0.00;0.00;;;4.90;99.90;;;;;;6209005;23;20007;-70
2022/01/07 06:46:39;;;;;;;0.00;0.00;;;4.80;99.90;;;;;;6208043;23;20484;-70
2022/01/07 06:49:04;;;;;;;0.00;0.00;;;4.90;99.90;;;;;;6210476;23;20083;-70
2022/01/07 06:51:31;;;;;;;0.00;0.00;;;5.10;99.90;;;;;;6210468;23;20004;-70
2022/01/07 06:53:57;;;;;;;0.00;0.00;;;5.10;99.90;;;;;;6208637;23;20088;-71
2022/01/07 06:56:23;;;;;;;;;;;5.20;99.90;;;;;;6212341;23;20086;-71
2022/01/07 06:58:49;;;;;;;0.00;0.00;;;5.30;99.90;;;;;;6212670;23;19900;-71
2022/01/07 07:01:15;;;;;;;0.00;0.00;;;5.20;99.90;;;;;;6210762;23;20325;-71
2022/01/07 07:03:41;;;;;;;0.00;0.00;;;5.10;99.90;;;;;;6213456;23;20009;-72
2022/01/07 07:06:07;;;;;;;0.00;0.00;;;5.00;99.90;;;;;;6211964;23;20425;-71
2022/01/07 07:08:33;;;;;;;0.00;0.00;;;5.10;99.90;;;;;;6213567;23;20461;-71
2022/01/07 07:10:58;;;;;;;0.00;0.00;;;4.90;99.90;;;;;;6211710;23;20000;-70
2022/01/07 07:13:24;;;;;;;0.00;0.00;;;4.90;99.90;;;;;;6211494;23;20375;-70
2022/01/07 07:15:50;;;;;;;0.00;0.00;;;5.00;99.90;;;;;;6213469;23;20004;-72
2022/01/07 07:18:17;;;;;;;0.00;0.00;;;5.00;99.90;;;;;;6212483;23;20009;-71
2022/01/07 07:20:43;;;;;;;0.00;0.00;;;5.00;99.90;;;;;;6212200;23;20413;-71
2022/01/07 07:23:09;;;;;;;;;;;4.90;99.90;;;;;;6213216;23;20019;-71
2022/01/07 07:25:34;;;;;;;0.00;0.00;;;4.70;99.90;;;;;;6211664;23;19899;-70
2022/01/07 07:28:01;;;;;;;0.00;0.00;;;4.60;99.90;;;;;;6212836;23;19997;-71
2022/01/07 07:30:34;;;;;;;0.00;0.00;;;4.60;99.90;;;;;;6211777;23;20341;-69
2022/01/07 07:33:18;;;;;;;0.00;0.00;;;4.50;99.90;;;;;;6210746;23;20035;-69
2022/01/07 07:38:12;;;;;;;0.00;0.00;;;4.30;99.90;;;;;;6214431;23;20394;-70
2022/01/07 07:40:38;;;;;;;0.00;0.00;;;4.40;99.90;;;;;;6212493;23;20076;-70
2022/01/07 07:43:04;;;;;;;0.00;0.00;;;4.30;99.90;;;;;;6214966;23;20337;-70
2022/01/07 07:45:30;;;;;;;0.00;0.00;;;4.30;99.90;;;;;;6213843;23;20425;-71
2022/01/07 07:47:55;;;;;;;;;;;4.30;99.90;;;;;;6212583;23;20216;-71
2022/01/07 07:50:21;;;;;;;0.00;0.00;;;4.30;99.90;;;;;;6215816;23;20113;-71
2022/01/07 07:52:47;;;;;;;0.00;0.00;;;4.20;99.90;;;;;;6214705;23;20001;-71
2022/01/07 07:55:12;;;;;;;;;;;4.10;99.90;;;;;;6214088;23;20000;-71
2022/01/07 07:57:38;;;;;;;0.00;0.00;;;4.10;99.90;;;;;;6211736;23;19900;-70
2022/01/07 08:00:06;;;;;;;0.00;0.00;;;4.10;99.90;;;;;;6211597;23;20012;-72
2022/01/07 08:02:32;;;;;;;0.00;0.00;;;3.80;99.90;;;;;;6212458;23;20072;-70
2022/01/07 08:04:58;;;;;;;0.00;0.00;;;3.70;99.90;;;;;;6209977;23;20020;-71
2022/01/07 08:07:23;;;;;;;0.00;0.00;;;3.80;99.90;;;;;;6212188;23;20322;-71
2022/01/07 08:09:51;;;;;;;0.00;0.00;;;3.80;99.90;;;;;;6213360;23;20336;-71
2022/01/07 08:12:29;;;;;;;0.00;0.00;;;4.00;99.90;;;;;;6214765;23;20326;-70
2022/01/07 08:17:43;;;;;;;0.00;0.00;;;3.80;99.90;;;;;;6187287;23;20008;-71
2022/01/07 08:20:09;;;;;;;0.00;0.00;;;3.90;99.90;;;;;;6214408;23;20000;-71
2022/01/07 08:22:35;;;;;;;0.00;0.00;;;3.90;99.90;;;;;;6215066;23;20340;-69
2022/01/07 08:25:02;;;;;;;0.00;0.00;;;3.90;99.90;;;;;;6212008;23;20012;-70
2022/01/07 08:27:28;;;;;;;0.00;0.00;;;3.80;99.90;;;;;;6210722;23;20012;-69
2022/01/07 08:29:54;;;;;;;0.00;0.00;;;3.70;99.90;;;;;;6212244;23;20009;-69
2022/01/07 08:35:04;;;;;;;0.00;0.00;;;3.70;99.90;;;;;;6212601;23;20027;-69
2022/01/07 08:37:30;;;;;;;;;;;3.70;99.90;;;;;;6213019;23;20075;-71
2022/01/07 08:39:57;;;;;;;0.00;0.00;;;3.60;99.90;;;;;;6211694;23;20317;-71
2022/01/07 08:42:24;;;;;;;0.00;0.00;;;3.50;99.90;;;;;;6212105;23;20044;-70
2022/01/07 08:44:52;;;;;;;0.00;0.00;;;3.40;99.90;;;;;;6211589;23;20072;-69
2022/01/07 08:47:24;;;;;;;0.00;0.00;;;3.40;99.90;;;;;;6211579;23;20500;-70
2022/01/07 08:49:51;;;;;;;0.00;0.00;;;3.50;99.90;;;;;;6210599;23;20059;-69
2022/01/07 08:52:17;;;;;;;0.00;0.00;;;3.50;99.90;;;;;;6213425;23;20005;-70
2022/01/07 08:54:43;;;;;;;0.00;0.00;;;3.50;99.90;;;;;;6212938;23;20000;-70
2022/01/07 08:57:09;;;;;;;0.00;0.00;;;3.40;99.90;;;;;;6215806;23;19996;-69
2022/01/07 08:59:35;;;;;;;0.00;0.00;;;3.50;99.90;;;;;;6216178;23;20000;-70
2022/01/07 09:02:01;;;;;;;0.00;0.00;;;3.50;99.90;;;;;;6215738;23;20005;-71
2022/01/07 09:04:26;;;;;;;0.00;0.00;;;3.50;99.90;;;;;;6214574;23;20007;-71
2022/01/07 09:06:52;;;;;;;;;;;3.60;99.90;;;;;;6213693;23;19997;-70
2022/01/07 09:09:17;;;;;;;0.00;0.00;;;3.50;99.90;;;;;;6212859;23;19977;-70
2022/01/07 09:11:43;;;;;;;0.00;0.00;;;3.60;99.90;;;;;;6213267;23;20000;-71
2022/01/07 09:14:09;;;;;;;0.00;0.00;;;3.60;99.90;;;;;;6211964;23;20023;-70
2022/01/07 09:16:36;;;;;;;0.00;0.00;;;3.60;99.90;;;;;;6212771;23;20436;-70
2022/01/07 09:19:03;;;;;;;0.00;0.00;;;3.60;99.90;;;;;;6212528;23;20100;-70
2022/01/07 09:21:28;;;;;;;0.00;0.00;;;3.80;99.90;;;;;;6212368;23;20076;-70
2022/01/07 09:23:54;;;;;;;0.00;0.00;;;3.80;99.90;;;;;;6214044;23;20023;-69
2022/01/07 09:26:21;;;;;;;0.00;0.00;;;4.00;99.90;;;;;;6215378;23;20325;-70
2022/01/07 09:28:46;;;;;;;0.00;0.00;;;4.20;99.90;;;;;;6214048;23;20396;-70
2022/01/07 09:31:14;;;;;;;0.00;0.00;;;4.20;99.90;;;;;;6212879;23;20127;-70
2022/01/07 09:33:40;;;;;;;0.00;0.00;;;4.40;99.90;;;;;;6211023;23;20027;-70
2022/01/07 09:36:05;;;;;;;;;;;4.60;99.90;;;;;;6182682;23;20012;-70
2022/01/07 09:38:31;;;;;;;0.00;0.00;;;4.70;99.90;;;;;;6182687;23;19901;-72
2022/01/07 09:40:57;;;;;;;0.00;0.00;;;4.70;99.90;;;;;;6182265;23;20032;-71
2022/01/07 09:43:23;;;;;;;0.00;0.00;;;4.70;99.90;;;;;;6180857;23;20009;-71
2022/01/07 09:45:49;;;;;;;0.00;0.00;;;4.70;99.90;;;;;;6181485;23;20049;-71
2022/01/07 09:48:16;;;;;;;0.00;0.00;;;4.70;99.90;;;;;;6182731;23;20329;-71
2022/01/07 09:50:41;;;;;;;0.00;0.00;;;4.80;99.90;;;;;;6155640;23;20009;-70
2022/01/07 09:53:13;;;;;;;0.00;0.00;;;4.90;99.90;;;;;;6155250;23;20147;-71
2022/01/07 09:55:40;;;;;;;0.00;0.00;;;5.00;99.90;;;;;;6182184;23;20329;-70
2022/01/07 09:58:07;;;;;;;0.00;0.00;;;5.10;99.90;;;;;;6181792;23;20005;-69
2022/01/07 10:00:37;;;;;;;0.00;0.00;;;5.10;99.90;;;;;;6181407;23;20016;-70
2022/01/07 10:03:11;;;;;;;0.00;0.00;;;5.20;99.90;;;;;;6181459;23;20105;-70
2022/01/07 10:05:50;;;;;;;0.00;0.00;;;5.30;99.90;;;;;;6181721;23;20019;-68
2022/01/07 10:08:24;;;;;;;0.00;0.00;;;5.50;99.90;;;;;;6181959;23;20394;-70
2022/01/07 10:11:20;;;;;;;0.00;0.00;;;5.60;99.90;;;;;;6182488;23;20039;-70
2022/01/07 10:13:48;;;;;;;0.00;0.00;;;5.80;99.90;;;;;;6161958;23;20004;-72
2022/01/07 10:16:22;;;;;;;0.00;0.00;;;5.80;99.90;;;;;;6156308;23;20433;-71
2022/01/07 10:18:49;;;;;;;0.00;0.00;;;5.90;99.90;;;;;;6182132;23;19997;-69
2022/01/07 10:21:17;;;;;;;0.00;0.00;;;6.00;99.90;;;;;;6180828;23;20076;-71
2022/01/07 10:23:44;;;;;;;0.00;0.00;;;6.00;99.90;;;;;;6181984;23;20063;-70
2022/01/07 10:26:16;;;;;;;0.00;0.00;;;5.90;99.90;;;;;;6181118;23;20012;-69
2022/01/07 10:28:43;;;;;;;0.00;0.00;;;5.90;99.90;;;;;;6181223;23;20040;-71
2022/01/07 10:31:09;;;;;;;0.00;0.00;;;5.90;99.90;;;;;;6180850;23;20056;-70
2022/01/07 10:33:38;;;;;;;0.00;0.00;;;6.00;99.90;;;;;;6179930;23;20060;-71
2022/01/07 10:36:06;;;;;;;0.00;0.00;;;6.10;99.90;;;;;;6211591;23;20021;-70
2022/01/07 10:38:35;;;;;;;0.00;0.00;;;6.10;99.90;;;;;;6211336;23;19996;-71
2022/01/07 10:41:02;;;;;;;0.00;0.00;;;6.10;99.90;;;;;;6209681;23;20155;-71
2022/01/07 10:43:34;;;;;;;0.00;0.00;;;6.10;99.90;;;;;;6211173;23;20035;-71
2022/01/07 10:46:00;;;;;;;0.00;0.00;;;6.10;99.90;;;;;;6210391;23;20005;-70
2022/01/07 10:48:47;;;;;;;0.00;0.00;;;6.10;99.90;;;;;;6211633;23;20028;-72
2022/01/07 10:51:19;;;;;;;0.00;0.00;;;6.00;99.90;;;;;;6211686;23;20001;-71
2022/01/07 10:53:54;;;;;;;0.00;0.00;;;5.90;99.90;;;;;;6209447;23;20651;-71
2022/01/07 10:56:43;;;;;;;0.00;0.00;;;5.90;99.90;;;;;;6211488;23;20000;-73
2022/01/07 10:59:12;;;;;;;0.00;0.00;;;5.90;99.90;;;;;;6212177;23;20052;-71
2022/01/07 11:01:48;;;;;;;0.00;0.00;;;5.90;99.90;;;;;;6209748;23;20004;-70
2022/01/07 11:04:19;;;;;;;0.00;0.00;;;5.90;99.90;;;;;;6209375;23;20325;-70
2022/01/07 11:06:48;;;;;;;0.00;0.00;;;6.00;99.90;;;;;;6206443;23;20001;-72
2022/01/07 11:09:16;;;;;;;0.00;0.00;;;6.10;99.90;;;;;;6213846;23;20001;-70
2022/01/07 11:11:49;;;;;;;0.00;0.00;;;6.30;99.90;;;;;;6211347;23;20032;-72
2022/01/07 11:14:21;;;;;;;0.00;0.00;;;6.30;99.90;;;;;;6211087;23;20000;-70
2022/01/07 11:16:48;;;;;;;0.00;0.00;;;6.40;99.90;;;;;;6210718;23;20404;-71
2022/01/07 11:19:19;;;;;;;0.00;0.00;;;6.30;99.90;;;;;;6210702;23;20003;-71
2022/01/07 11:21:51;;;;;;;0.00;0.00;;;6.50;99.90;;;;;;6209604;23;20451;-72
2022/01/07 11:24:36;;;;;;;0.00;0.00;;;6.50;99.90;;;;;;6208941;23;20004;-71
2022/01/07 11:27:10;;;;;;;0.00;0.00;;;6.50;99.90;;;;;;6208052;23;20008;-72
2022/01/07 11:29:44;;;;;;;0.00;0.00;;;6.60;99.90;;;;;;6210722;23;20289;-71
2022/01/07 11:32:25;;;;;;;0.00;0.00;;;6.60;99.90;;;;;;6211295;23;20000;-72
2022/01/07 11:34:52;;;;;;;0.00;0.00;;;6.60;99.90;;;;;;6210606;23;20013;-71
2022/01/07 11:37:35;;;;;;;0.00;0.00;;;6.70;99.90;;;;;;6210594;23;19996;-72
2022/01/07 11:40:01;;;;;;;0.00;0.00;;;6.70;99.90;;;;;;6210907;23;20103;-71
2022/01/07 11:42:41;;;;;;;0.00;0.00;;;6.70;99.90;;;;;;6210928;23;20013;-70
2022/01/07 11:45:27;;;;;;;0.00;0.00;;;6.70;99.90;;;;;;6211770;23;19993;-72
2022/01/07 11:47:55;;;;;;;0.00;0.00;;;6.80;99.90;;;;;;6211718;23;20369;-70
2022/01/07 11:50:20;;;;;;;0.00;0.00;;;6.90;99.90;;;;;;6211863;23;20000;-72
2022/01/07 11:53:00;;;;;;;0.00;0.00;;;7.00;99.90;;;;;;6209987;23;20014;-72
2022/01/07 11:55:33;;;;;;;0.00;0.00;;;7.00;99.90;;;;;;6209520;23;20012;-72
2022/01/07 11:58:01;;;;;;;0.00;0.00;;;7.20;99.90;;;;;;6210909;23;20000;-72
2022/01/07 12:00:59;;;;;;;0.00;0.00;;;7.20;99.90;;;;;;6212893;23;20027;-71
2022/01/07 12:03:40;;;;;;;0.00;0.00;;;7.20;99.90;;;;;;6213386;23;20012;-71
2022/01/07 12:06:23;;;;;;;0.00;0.00;;;7.20;99.90;;;;;;6211826;23;20351;-72
2022/01/07 12:09:05;;;;;;;0.00;0.00;;;7.10;99.90;;;;;;6214530;23;20070;-72
2022/01/07 12:11:38;;;;;;;0.00;0.00;;;7.20;99.90;;;;;;6211889;23;20008;-70
2022/01/07 12:14:12;;;;;;;0.00;0.00;;;7.30;99.90;;;;;;6211418;23;20005;-72
2022/01/07 12:16:39;;;;;;;0.00;0.00;;;7.30;99.90;;;;;;6212145;23;20008;-71
2022/01/07 12:19:21;;;;;;;0.00;0.00;;;7.30;99.90;;;;;;6212530;23;20011;-69
2022/01/07 12:21:49;;;;;;;0.00;0.00;;;7.30;99.90;;;;;;6213932;23;20092;-69
2022/01/07 12:24:22;;;;;;;0.00;0.00;;;7.30;99.90;;;;;;6213324;23;20023;-71
2022/01/07 12:27:04;;;;;;;0.00;0.00;;;7.50;99.90;;;;;;6208966;23;20009;-71
2022/01/07 12:29:32;;;;;;;0.00;0.00;;;7.50;99.90;;;;;;6212204;23;20004;-70
2022/01/07 12:31:58;;;;;;;0.00;0.00;;;7.50;99.90;;;;;;6212069;23;20013;-71
2022/01/07 12:34:28;;;;;;;;;;;7.60;99.90;;;;;;6211568;23;20012;-69
2022/01/07 12:37:05;;;;;;;0.00;0.00;;;7.50;99.90;;;;;;6211329;23;19903;-70
2022/01/07 12:39:34;;;;;;;0.00;0.00;;;7.40;99.90;;;;;;6211308;23;20004;-70
2022/01/07 12:42:00;;;;;;;0.00;0.00;;;7.40;99.90;;;;;;6211242;23;20130;-71
2022/01/07 12:44:37;;;;;;;0.00;0.00;;;7.30;99.90;;;;;;6211158;23;19993;-72
2022/01/07 12:47:03;;;;;;;0.00;0.00;;;7.20;99.90;;;;;;6206383;23;20495;-71
2022/01/07 12:49:36;;;;;;;0.00;0.00;;;7.10;99.90;;;;;;6209788;23;20026;-71
2022/01/07 12:52:24;;;;;;;0.00;0.00;;;7.00;99.90;;;;;;6210368;23;20000;-70
2022/01/07 12:54:54;;;;;;;0.00;0.00;;;6.90;99.90;;;;;;6211635;23;20009;-70
2022/01/07 12:57:25;;;;;;;0.00;0.00;;;6.70;99.90;;;;;;6213273;23;19997;-70
2022/01/07 13:00:26;;;;;;;0.00;0.00;;;6.60;99.90;;;;;;6212542;23;20000;-71
2022/01/07 13:03:01;;;;;;;0.00;0.00;;;6.40;99.90;;;;;;6212443;23;20456;-71
2022/01/07 13:05:40;;;;;;;0.00;0.00;;;6.30;99.90;;;;;;6212966;23;19992;-71
2022/01/07 13:08:09;;;;;;;0.00;0.00;;;6.30;99.90;;;;;;6211666;23;20004;-70
2022/01/07 13:10:36;;;;;;;0.00;0.00;;;6.30;99.90;;;;;;6212229;23;20309;-71
2022/01/07 13:13:09;;;;;;;0.00;0.00;;;6.10;99.90;;;;;;6211977;23;20417;-70
2022/01/07 13:15:40;;;;;;;0.00;0.00;;;6.10;99.90;;;;;;6213457;23;20097;-71
2022/01/07 13:18:27;;;;;;;0.00;0.00;;;6.10;99.90;;;;;;6213795;23;20004;-70